sensor_id;sensor_type;location;lat;lon;timestamp;P1;durP1;ratioP1;P2;durP2;ratioP2
10465;SDS011;5280;42.600;23.556;2022-12-15T00:00:00;11.47;;;9.87;;
10465;SDS011;5280;42.600;23.556;2022-12-15T00:02:44;10.57;;;8.13;;
10465;SDS011;5280;42.600;23.556;2022-12-15T00:05:29;9.47;;;8.03;;
10465;SDS011;5280;42.600;23.556;2022-12-15T00:08:13;9.23;;;7.40;;
10465;SDS011;5280;42.600;23.556;2022-12-15T00:10:59;9.57;;;7.87;;
10465;SDS011;5280;42.600;23.556;2022-12-15T00:13:45;9.97;;;7.70;;
10465;SDS011;5280;42.600;23.556;2022-12-15T00:16:30;9.40;;;7.80;;
10465;SDS011;5280;42.600;23.556;2022-12-15T00:19:17;8.20;;;7.40;;
10465;SDS011;5280;42.600;23.556;2022-12-15T00:22:01;11.57;;;8.50;;
10465;SDS011;5280;42.600;23.556;2022-12-15T00:24:47;11.13;;;8.33;;
10465;SDS011;5280;42.600;23.556;2022-12-15T00:27:32;10.47;;;8.77;;
10465;SDS011;5280;42.600;23.556;2022-12-15T00:30:17;10.93;;;9.13;;
10465;SDS011;5280;42.600;23.556;2022-12-15T00:33:05;10.47;;;8.97;;
10465;SDS011;5280;42.600;23.556;2022-12-15T00:35:51;8.53;;;6.57;;
10465;SDS011;5280;42.600;23.556;2022-12-15T00:38:35;10.50;;;8.37;;
10465;SDS011;5280;42.600;23.556;2022-12-15T00:41:08;12.77;;;10.03;;
10465;SDS011;5280;42.600;23.556;2022-12-15T00:43:36;10.50;;;8.53;;
10465;SDS011;5280;42.600;23.556;2022-12-15T00:46:04;10.10;;;8.63;;
10465;SDS011;5280;42.600;23.556;2022-12-15T00:48:55;8.83;;;7.83;;
10465;SDS011;5280;42.600;23.556;2022-12-15T00:51:21;9.07;;;7.67;;
10465;SDS011;5280;42.600;23.556;2022-12-15T00:54:06;7.83;;;6.70;;
10465;SDS011;5280;42.600;23.556;2022-12-15T00:56:51;8.40;;;7.50;;
10465;SDS011;5280;42.600;23.556;2022-12-15T00:59:35;6.87;;;6.17;;
10465;SDS011;5280;42.600;23.556;2022-12-15T01:02:21;7.40;;;6.47;;
10465;SDS011;5280;42.600;23.556;2022-12-15T01:05:05;7.33;;;6.17;;
10465;SDS011;5280;42.600;23.556;2022-12-15T01:07:50;7.17;;;6.20;;
10465;SDS011;5280;42.600;23.556;2022-12-15T01:10:34;7.17;;;5.97;;
10465;SDS011;5280;42.600;23.556;2022-12-15T01:13:19;6.23;;;5.37;;
10465;SDS011;5280;42.600;23.556;2022-12-15T01:16:08;8.13;;;7.17;;
10465;SDS011;5280;42.600;23.556;2022-12-15T01:18:54;7.67;;;6.27;;
10465;SDS011;5280;42.600;23.556;2022-12-15T01:21:39;6.10;;;5.50;;
10465;SDS011;5280;42.600;23.556;2022-12-15T01:24:06;6.40;;;5.10;;
10465;SDS011;5280;42.600;23.556;2022-12-15T01:26:33;6.00;;;5.40;;
10465;SDS011;5280;42.600;23.556;2022-12-15T01:29:00;4.03;;;3.63;;
10465;SDS011;5280;42.600;23.556;2022-12-15T01:31:26;6.77;;;4.77;;
10465;SDS011;5280;42.600;23.556;2022-12-15T01:33:55;6.90;;;4.57;;
10465;SDS011;5280;42.600;23.556;2022-12-15T01:36:21;3.80;;;3.50;;
10465;SDS011;5280;42.600;23.556;2022-12-15T01:38:48;7.30;;;6.17;;
10465;SDS011;5280;42.600;23.556;2022-12-15T01:41:15;4.30;;;3.90;;
10465;SDS011;5280;42.600;23.556;2022-12-15T01:43:41;2.40;;;2.20;;
10465;SDS011;5280;42.600;23.556;2022-12-15T01:46:08;2.30;;;2.10;;
10465;SDS011;5280;42.600;23.556;2022-12-15T01:48:40;1.80;;;1.70;;
10465;SDS011;5280;42.600;23.556;2022-12-15T01:51:23;4.20;;;3.80;;
10465;SDS011;5280;42.600;23.556;2022-12-15T01:53:53;3.77;;;2.00;;
10465;SDS011;5280;42.600;23.556;2022-12-15T01:56:25;2.80;;;2.60;;
10465;SDS011;5280;42.600;23.556;2022-12-15T01:58:55;4.60;;;2.80;;
10465;SDS011;5280;42.600;23.556;2022-12-15T02:01:25;1.57;;;1.47;;
10465;SDS011;5280;42.600;23.556;2022-12-15T02:03:52;1.67;;;1.57;;
10465;SDS011;5280;42.600;23.556;2022-12-15T02:06:18;1.20;;;1.20;;
10465;SDS011;5280;42.600;23.556;2022-12-15T02:08:48;1.40;;;1.30;;
10465;SDS011;5280;42.600;23.556;2022-12-15T02:11:22;1.30;;;1.30;;
10465;SDS011;5280;42.600;23.556;2022-12-15T02:14:04;1.43;;;1.33;;
10465;SDS011;5280;42.600;23.556;2022-12-15T02:16:37;1.40;;;1.23;;
10465;SDS011;5280;42.600;23.556;2022-12-15T02:19:20;1.03;;;1.03;;
10465;SDS011;5280;42.600;23.556;2022-12-15T02:22:17;1.40;;;1.30;;
10465;SDS011;5280;42.600;23.556;2022-12-15T02:25:06;1.90;;;1.80;;
10465;SDS011;5280;42.600;23.556;2022-12-15T02:27:51;1.80;;;1.70;;
10465;SDS011;5280;42.600;23.556;2022-12-15T02:30:25;1.77;;;1.67;;
10465;SDS011;5280;42.600;23.556;2022-12-15T02:33:06;1.27;;;1.27;;
10465;SDS011;5280;42.600;23.556;2022-12-15T02:35:46;1.63;;;1.53;;
10465;SDS011;5280;42.600;23.556;2022-12-15T02:38:26;2.00;;;1.90;;
10465;SDS011;5280;42.600;23.556;2022-12-15T02:40:59;1.77;;;1.67;;
10465;SDS011;5280;42.600;23.556;2022-12-15T02:43:27;1.63;;;1.50;;
10465;SDS011;5280;42.600;23.556;2022-12-15T02:45:59;2.70;;;2.50;;
10465;SDS011;5280;42.600;23.556;2022-12-15T02:48:41;2.20;;;2.00;;
10465;SDS011;5280;42.600;23.556;2022-12-15T02:51:21;3.13;;;2.70;;
10465;SDS011;5280;42.600;23.556;2022-12-15T02:54:01;2.67;;;2.47;;
10465;SDS011;5280;42.600;23.556;2022-12-15T02:56:42;2.73;;;2.53;;
10465;SDS011;5280;42.600;23.556;2022-12-15T02:59:14;2.83;;;2.63;;
10465;SDS011;5280;42.600;23.556;2022-12-15T03:01:50;2.77;;;2.53;;
10465;SDS011;5280;42.600;23.556;2022-12-15T03:04:21;4.27;;;2.87;;
10465;SDS011;5280;42.600;23.556;2022-12-15T03:06:52;2.40;;;2.20;;
10465;SDS011;5280;42.600;23.556;2022-12-15T03:09:21;2.60;;;2.40;;
10465;SDS011;5280;42.600;23.556;2022-12-15T03:11:47;2.83;;;2.63;;
10465;SDS011;5280;42.600;23.556;2022-12-15T03:14:14;2.60;;;2.40;;
10465;SDS011;5280;42.600;23.556;2022-12-15T03:16:41;3.30;;;3.00;;
10465;SDS011;5280;42.600;23.556;2022-12-15T03:19:10;2.50;;;2.30;;
10465;SDS011;5280;42.600;23.556;2022-12-15T03:21:38;2.77;;;2.57;;
10465;SDS011;5280;42.600;23.556;2022-12-15T03:24:05;3.40;;;3.10;;
10465;SDS011;5280;42.600;23.556;2022-12-15T03:26:32;3.17;;;2.87;;
10465;SDS011;5280;42.600;23.556;2022-12-15T03:28:59;3.27;;;2.97;;
10465;SDS011;5280;42.600;23.556;2022-12-15T03:31:26;3.20;;;2.90;;
10465;SDS011;5280;42.600;23.556;2022-12-15T03:33:53;3.30;;;3.00;;
10465;SDS011;5280;42.600;23.556;2022-12-15T03:36:21;5.13;;;3.70;;
10465;SDS011;5280;42.600;23.556;2022-12-15T03:38:48;3.70;;;3.40;;
10465;SDS011;5280;42.600;23.556;2022-12-15T03:41:15;3.70;;;3.30;;
10465;SDS011;5280;42.600;23.556;2022-12-15T03:43:43;4.03;;;3.63;;
10465;SDS011;5280;42.600;23.556;2022-12-15T03:46:10;3.50;;;3.07;;
10465;SDS011;5280;42.600;23.556;2022-12-15T03:48:37;3.73;;;3.20;;
10465;SDS011;5280;42.600;23.556;2022-12-15T03:51:04;3.57;;;3.10;;
10465;SDS011;5280;42.600;23.556;2022-12-15T03:53:32;3.90;;;3.60;;
10465;SDS011;5280;42.600;23.556;2022-12-15T03:55:59;4.30;;;3.90;;
10465;SDS011;5280;42.600;23.556;2022-12-15T03:58:29;4.17;;;3.77;;
10465;SDS011;5280;42.600;23.556;2022-12-15T04:00:55;4.83;;;3.77;;
10465;SDS011;5280;42.600;23.556;2022-12-15T04:03:22;4.43;;;4.00;;
10465;SDS011;5280;42.600;23.556;2022-12-15T04:05:49;6.07;;;4.77;;
10465;SDS011;5280;42.600;23.556;2022-12-15T04:08:16;5.53;;;4.17;;
10465;SDS011;5280;42.600;23.556;2022-12-15T04:10:45;4.73;;;4.20;;
10465;SDS011;5280;42.600;23.556;2022-12-15T04:13:11;5.87;;;4.30;;
10465;SDS011;5280;42.600;23.556;2022-12-15T04:15:39;4.30;;;3.90;;
10465;SDS011;5280;42.600;23.556;2022-12-15T04:18:06;4.00;;;3.60;;
10465;SDS011;5280;42.600;23.556;2022-12-15T04:20:35;4.20;;;3.80;;
10465;SDS011;5280;42.600;23.556;2022-12-15T04:23:03;5.63;;;3.97;;
10465;SDS011;5280;42.600;23.556;2022-12-15T04:25:32;3.87;;;3.53;;
10465;SDS011;5280;42.600;23.556;2022-12-15T04:28:17;3.70;;;3.30;;
10465;SDS011;5280;42.600;23.556;2022-12-15T04:36:06;3.80;;;3.40;;
10465;SDS011;5280;42.600;23.556;2022-12-15T04:38:52;3.80;;;3.47;;
10465;SDS011;5280;42.600;23.556;2022-12-15T04:41:37;4.10;;;3.63;;
10465;SDS011;5280;42.600;23.556;2022-12-15T04:44:22;3.93;;;3.40;;
10465;SDS011;5280;42.600;23.556;2022-12-15T04:47:07;4.53;;;3.53;;
10465;SDS011;5280;42.600;23.556;2022-12-15T04:49:52;3.67;;;3.23;;
10465;SDS011;5280;42.600;23.556;2022-12-15T04:52:36;3.43;;;3.00;;
10465;SDS011;5280;42.600;23.556;2022-12-15T04:55:21;5.23;;;3.20;;
10465;SDS011;5280;42.600;23.556;2022-12-15T04:58:05;3.53;;;3.23;;
10465;SDS011;5280;42.600;23.556;2022-12-15T05:00:52;3.63;;;3.33;;
10465;SDS011;5280;42.600;23.556;2022-12-15T05:03:37;3.63;;;3.33;;
10465;SDS011;5280;42.600;23.556;2022-12-15T05:06:21;3.77;;;3.40;;
10465;SDS011;5280;42.600;23.556;2022-12-15T05:09:05;4.83;;;3.53;;
10465;SDS011;5280;42.600;23.556;2022-12-15T05:11:50;4.20;;;3.63;;
10465;SDS011;5280;42.600;23.556;2022-12-15T05:14:34;5.17;;;4.60;;
10465;SDS011;5280;42.600;23.556;2022-12-15T05:17:20;6.23;;;4.90;;
10465;SDS011;5280;42.600;23.556;2022-12-15T05:20:04;7.93;;;5.90;;
10465;SDS011;5280;42.600;23.556;2022-12-15T05:22:51;8.67;;;7.47;;
10465;SDS011;5280;42.600;23.556;2022-12-15T05:25:36;7.83;;;5.87;;
10465;SDS011;5280;42.600;23.556;2022-12-15T05:28:21;10.70;;;7.10;;
10465;SDS011;5280;42.600;23.556;2022-12-15T05:31:05;8.50;;;7.63;;
10465;SDS011;5280;42.600;23.556;2022-12-15T05:33:52;9.83;;;8.17;;
10465;SDS011;5280;42.600;23.556;2022-12-15T05:36:19;10.73;;;8.33;;
10465;SDS011;5280;42.600;23.556;2022-12-15T05:38:47;10.37;;;9.20;;
10465;SDS011;5280;42.600;23.556;2022-12-15T05:41:15;11.87;;;10.07;;
10465;SDS011;5280;42.600;23.556;2022-12-15T05:43:42;14.27;;;10.70;;
10465;SDS011;5280;42.600;23.556;2022-12-15T05:46:09;13.37;;;9.80;;
10465;SDS011;5280;42.600;23.556;2022-12-15T05:48:35;13.40;;;10.80;;
10465;SDS011;5280;42.600;23.556;2022-12-15T05:51:04;16.10;;;12.67;;
10465;SDS011;5280;42.600;23.556;2022-12-15T05:53:32;12.90;;;10.67;;
10465;SDS011;5280;42.600;23.556;2022-12-15T05:56:00;13.50;;;11.03;;
10465;SDS011;5280;42.600;23.556;2022-12-15T05:58:28;15.43;;;11.30;;
10465;SDS011;5280;42.600;23.556;2022-12-15T06:01:01;10.67;;;8.50;;
10465;SDS011;5280;42.600;23.556;2022-12-15T06:03:29;9.07;;;7.73;;
10465;SDS011;5280;42.600;23.556;2022-12-15T06:05:56;9.93;;;8.53;;
10465;SDS011;5280;42.600;23.556;2022-12-15T06:08:25;12.57;;;10.27;;
10465;SDS011;5280;42.600;23.556;2022-12-15T06:10:52;11.23;;;8.53;;
10465;SDS011;5280;42.600;23.556;2022-12-15T06:13:19;14.57;;;11.23;;
10465;SDS011;5280;42.600;23.556;2022-12-15T06:15:53;15.50;;;11.33;;
10465;SDS011;5280;42.600;23.556;2022-12-15T06:18:21;14.37;;;11.57;;
10465;SDS011;5280;42.600;23.556;2022-12-15T06:20:48;13.60;;;11.37;;
10465;SDS011;5280;42.600;23.556;2022-12-15T06:23:16;13.33;;;11.00;;
10465;SDS011;5280;42.600;23.556;2022-12-15T06:25:44;15.13;;;11.47;;
10465;SDS011;5280;42.600;23.556;2022-12-15T06:28:11;14.40;;;10.97;;
10465;SDS011;5280;42.600;23.556;2022-12-15T06:30:38;11.93;;;10.23;;
10465;SDS011;5280;42.600;23.556;2022-12-15T06:33:04;11.00;;;9.33;;
10465;SDS011;5280;42.600;23.556;2022-12-15T06:35:34;12.27;;;9.57;;
10465;SDS011;5280;42.600;23.556;2022-12-15T06:38:02;11.30;;;9.47;;
10465;SDS011;5280;42.600;23.556;2022-12-15T06:40:29;13.97;;;10.40;;
10465;SDS011;5280;42.600;23.556;2022-12-15T06:42:57;11.83;;;10.00;;
10465;SDS011;5280;42.600;23.556;2022-12-15T06:45:24;12.77;;;10.37;;
10465;SDS011;5280;42.600;23.556;2022-12-15T06:47:51;12.20;;;9.60;;
10465;SDS011;5280;42.600;23.556;2022-12-15T06:50:18;11.40;;;8.90;;
10465;SDS011;5280;42.600;23.556;2022-12-15T06:52:45;12.30;;;9.30;;
10465;SDS011;5280;42.600;23.556;2022-12-15T06:55:12;11.20;;;8.67;;
10465;SDS011;5280;42.600;23.556;2022-12-15T06:57:39;10.57;;;9.10;;
10465;SDS011;5280;42.600;23.556;2022-12-15T07:00:08;11.87;;;8.63;;
10465;SDS011;5280;42.600;23.556;2022-12-15T07:02:36;10.90;;;8.73;;
10465;SDS011;5280;42.600;23.556;2022-12-15T07:05:03;10.17;;;7.77;;
10465;SDS011;5280;42.600;23.556;2022-12-15T07:07:30;10.37;;;8.67;;
10465;SDS011;5280;42.600;23.556;2022-12-15T07:09:57;8.57;;;7.73;;
10465;SDS011;5280;42.600;23.556;2022-12-15T07:12:24;8.47;;;6.80;;
10465;SDS011;5280;42.600;23.556;2022-12-15T07:14:51;8.40;;;6.83;;
10465;SDS011;5280;42.600;23.556;2022-12-15T07:17:19;8.17;;;6.40;;
10465;SDS011;5280;42.600;23.556;2022-12-15T07:19:46;7.33;;;6.47;;
10465;SDS011;5280;42.600;23.556;2022-12-15T07:22:12;6.23;;;5.53;;
10465;SDS011;5280;42.600;23.556;2022-12-15T07:24:39;6.03;;;5.43;;
10465;SDS011;5280;42.600;23.556;2022-12-15T07:27:06;5.40;;;4.90;;
10465;SDS011;5280;42.600;23.556;2022-12-15T07:29:33;5.83;;;5.23;;
10465;SDS011;5280;42.600;23.556;2022-12-15T07:32:00;5.57;;;4.87;;
10465;SDS011;5280;42.600;23.556;2022-12-15T07:34:28;6.03;;;4.97;;
10465;SDS011;5280;42.600;23.556;2022-12-15T07:36:55;7.80;;;4.97;;
10465;SDS011;5280;42.600;23.556;2022-12-15T07:39:22;6.97;;;5.77;;
10465;SDS011;5280;42.600;23.556;2022-12-15T07:41:51;5.83;;;5.23;;
10465;SDS011;5280;42.600;23.556;2022-12-15T07:44:18;6.33;;;5.20;;
10465;SDS011;5280;42.600;23.556;2022-12-15T07:46:45;6.00;;;5.07;;
10465;SDS011;5280;42.600;23.556;2022-12-15T07:49:13;5.20;;;4.70;;
10465;SDS011;5280;42.600;23.556;2022-12-15T07:51:41;8.10;;;7.27;;
10465;SDS011;5280;42.600;23.556;2022-12-15T07:54:08;9.40;;;8.20;;
10465;SDS011;5280;42.600;23.556;2022-12-15T07:56:36;7.73;;;6.87;;
10465;SDS011;5280;42.600;23.556;2022-12-15T07:59:03;4.87;;;4.43;;
10465;SDS011;5280;42.600;23.556;2022-12-15T08:01:29;7.57;;;5.07;;
10465;SDS011;5280;42.600;23.556;2022-12-15T08:03:56;11.83;;;9.67;;
10465;SDS011;5280;42.600;23.556;2022-12-15T08:06:23;8.47;;;7.57;;
10465;SDS011;5280;42.600;23.556;2022-12-15T08:08:51;10.20;;;8.60;;
10465;SDS011;5280;42.600;23.556;2022-12-15T08:11:19;10.10;;;8.70;;
10465;SDS011;5280;42.600;23.556;2022-12-15T08:13:49;8.43;;;7.40;;
10465;SDS011;5280;42.600;23.556;2022-12-15T08:16:16;7.77;;;6.70;;
10465;SDS011;5280;42.600;23.556;2022-12-15T08:18:43;10.17;;;7.17;;
10465;SDS011;5280;42.600;23.556;2022-12-15T08:21:10;8.07;;;7.27;;
10465;SDS011;5280;42.600;23.556;2022-12-15T08:23:38;9.13;;;7.03;;
10465;SDS011;5280;42.600;23.556;2022-12-15T08:26:07;9.57;;;6.33;;
10465;SDS011;5280;42.600;23.556;2022-12-15T08:28:36;7.43;;;5.83;;
10465;SDS011;5280;42.600;23.556;2022-12-15T08:31:04;6.40;;;5.80;;
10465;SDS011;5280;42.600;23.556;2022-12-15T08:33:33;7.30;;;6.47;;
10465;SDS011;5280;42.600;23.556;2022-12-15T08:36:01;8.03;;;6.60;;
10465;SDS011;5280;42.600;23.556;2022-12-15T08:38:31;7.10;;;6.40;;
10465;SDS011;5280;42.600;23.556;2022-12-15T08:41:04;7.17;;;6.47;;
10465;SDS011;5280;42.600;23.556;2022-12-15T08:43:34;7.57;;;6.77;;
10465;SDS011;5280;42.600;23.556;2022-12-15T08:46:01;5.90;;;5.23;;
10465;SDS011;5280;42.600;23.556;2022-12-15T08:48:28;9.07;;;6.27;;
10465;SDS011;5280;42.600;23.556;2022-12-15T08:50:55;10.20;;;7.77;;
10465;SDS011;5280;42.600;23.556;2022-12-15T08:53:23;9.80;;;8.33;;
10465;SDS011;5280;42.600;23.556;2022-12-15T08:55:51;9.77;;;8.77;;
10465;SDS011;5280;42.600;23.556;2022-12-15T08:58:19;10.97;;;9.50;;
10465;SDS011;5280;42.600;23.556;2022-12-15T09:00:46;11.40;;;9.73;;
10465;SDS011;5280;42.600;23.556;2022-12-15T09:03:12;13.53;;;11.87;;
10465;SDS011;5280;42.600;23.556;2022-12-15T09:05:39;15.03;;;12.07;;
10465;SDS011;5280;42.600;23.556;2022-12-15T09:08:06;13.87;;;11.90;;
10465;SDS011;5280;42.600;23.556;2022-12-15T09:10:32;15.17;;;12.63;;
10465;SDS011;5280;42.600;23.556;2022-12-15T09:12:59;14.33;;;12.67;;
10465;SDS011;5280;42.600;23.556;2022-12-15T09:15:27;17.53;;;13.30;;
10465;SDS011;5280;42.600;23.556;2022-12-15T09:17:54;17.67;;;14.27;;
10465;SDS011;5280;42.600;23.556;2022-12-15T09:20:20;16.30;;;13.90;;
10465;SDS011;5280;42.600;23.556;2022-12-15T09:22:47;19.03;;;15.03;;
10465;SDS011;5280;42.600;23.556;2022-12-15T09:25:14;19.27;;;15.17;;
10465;SDS011;5280;42.600;23.556;2022-12-15T09:27:41;20.23;;;16.17;;
10465;SDS011;5280;42.600;23.556;2022-12-15T09:30:08;20.97;;;15.90;;
10465;SDS011;5280;42.600;23.556;2022-12-15T09:32:36;29.47;;;20.40;;
10465;SDS011;5280;42.600;23.556;2022-12-15T09:35:03;20.70;;;16.70;;
10465;SDS011;5280;42.600;23.556;2022-12-15T09:37:31;16.53;;;14.30;;
10465;SDS011;5280;42.600;23.556;2022-12-15T09:39:58;17.07;;;14.90;;
10465;SDS011;5280;42.600;23.556;2022-12-15T09:42:25;20.60;;;15.57;;
10465;SDS011;5280;42.600;23.556;2022-12-15T09:44:56;19.90;;;14.03;;
10465;SDS011;5280;42.600;23.556;2022-12-15T09:47:29;16.47;;;13.10;;
10465;SDS011;5280;42.600;23.556;2022-12-15T09:50:09;19.80;;;16.10;;
10465;SDS011;5280;42.600;23.556;2022-12-15T09:52:41;16.50;;;13.43;;
10465;SDS011;5280;42.600;23.556;2022-12-15T09:55:16;15.80;;;12.13;;
10465;SDS011;5280;42.600;23.556;2022-12-15T09:57:45;22.10;;;15.90;;
10465;SDS011;5280;42.600;23.556;2022-12-15T10:00:17;20.97;;;16.53;;
10465;SDS011;5280;42.600;23.556;2022-12-15T10:05:54;24.27;;;18.77;;
10465;SDS011;5280;42.600;23.556;2022-12-15T10:08:28;16.90;;;11.93;;
10465;SDS011;5280;42.600;23.556;2022-12-15T10:10:58;16.03;;;13.30;;
10465;SDS011;5280;42.600;23.556;2022-12-15T10:13:29;27.57;;;20.50;;
10465;SDS011;5280;42.600;23.556;2022-12-15T10:16:04;28.30;;;21.43;;
10465;SDS011;5280;42.600;23.556;2022-12-15T10:18:47;25.07;;;21.63;;
10465;SDS011;5280;42.600;23.556;2022-12-15T10:21:22;29.77;;;23.33;;
10465;SDS011;5280;42.600;23.556;2022-12-15T10:23:52;30.27;;;23.03;;
10465;SDS011;5280;42.600;23.556;2022-12-15T10:26:20;28.33;;;22.73;;
10465;SDS011;5280;42.600;23.556;2022-12-15T10:28:54;27.63;;;22.57;;
10465;SDS011;5280;42.600;23.556;2022-12-15T10:31:40;28.40;;;20.53;;
10465;SDS011;5280;42.600;23.556;2022-12-15T10:34:16;26.07;;;20.87;;
10465;SDS011;5280;42.600;23.556;2022-12-15T10:36:50;24.37;;;18.67;;
10465;SDS011;5280;42.600;23.556;2022-12-15T10:39:18;22.20;;;17.60;;
10465;SDS011;5280;42.600;23.556;2022-12-15T10:41:46;20.73;;;17.03;;
10465;SDS011;5280;42.600;23.556;2022-12-15T10:44:38;21.97;;;16.47;;
10465;SDS011;5280;42.600;23.556;2022-12-15T10:47:07;18.93;;;16.17;;
10465;SDS011;5280;42.600;23.556;2022-12-15T10:49:35;20.23;;;16.40;;
10465;SDS011;5280;42.600;23.556;2022-12-15T10:52:03;19.60;;;16.13;;
10465;SDS011;5280;42.600;23.556;2022-12-15T10:54:33;18.43;;;15.37;;
10465;SDS011;5280;42.600;23.556;2022-12-15T10:57:02;19.87;;;15.87;;
10465;SDS011;5280;42.600;23.556;2022-12-15T10:59:41;16.43;;;14.40;;
10465;SDS011;5280;42.600;23.556;2022-12-15T11:02:17;14.77;;;13.07;;
10465;SDS011;5280;42.600;23.556;2022-12-15T11:04:57;13.73;;;11.87;;
10465;SDS011;5280;42.600;23.556;2022-12-15T11:07:32;12.90;;;11.43;;
10465;SDS011;5280;42.600;23.556;2022-12-15T11:10:08;14.50;;;12.90;;
10465;SDS011;5280;42.600;23.556;2022-12-15T11:12:40;18.03;;;12.40;;
10465;SDS011;5280;42.600;23.556;2022-12-15T11:15:31;17.93;;;14.03;;
10465;SDS011;5280;42.600;23.556;2022-12-15T11:18:08;19.90;;;13.70;;
10465;SDS011;5280;42.600;23.556;2022-12-15T11:20:42;15.87;;;12.83;;
10465;SDS011;5280;42.600;23.556;2022-12-15T11:23:16;14.93;;;13.23;;
10465;SDS011;5280;42.600;23.556;2022-12-15T11:25:48;15.40;;;12.93;;
10465;SDS011;5280;42.600;23.556;2022-12-15T11:28:21;16.83;;;12.77;;
10465;SDS011;5280;42.600;23.556;2022-12-15T11:30:56;14.70;;;12.43;;
10465;SDS011;5280;42.600;23.556;2022-12-15T11:33:29;14.83;;;13.00;;
10465;SDS011;5280;42.600;23.556;2022-12-15T11:35:59;16.33;;;14.17;;
10465;SDS011;5280;42.600;23.556;2022-12-15T11:38:38;16.17;;;13.80;;
10465;SDS011;5280;42.600;23.556;2022-12-15T11:41:11;16.50;;;14.70;;
10465;SDS011;5280;42.600;23.556;2022-12-15T11:43:51;17.80;;;15.47;;
10465;SDS011;5280;42.600;23.556;2022-12-15T11:46:29;14.67;;;13.17;;
10465;SDS011;5280;42.600;23.556;2022-12-15T11:49:18;15.87;;;11.83;;
10465;SDS011;5280;42.600;23.556;2022-12-15T11:52:17;14.70;;;12.23;;
10465;SDS011;5280;42.600;23.556;2022-12-15T11:55:06;14.23;;;12.17;;
10465;SDS011;5280;42.600;23.556;2022-12-15T11:57:48;14.17;;;12.20;;
10465;SDS011;5280;42.600;23.556;2022-12-15T12:00:26;14.27;;;12.13;;
10465;SDS011;5280;42.600;23.556;2022-12-15T12:03:11;13.43;;;12.03;;
10465;SDS011;5280;42.600;23.556;2022-12-15T12:06:06;11.00;;;9.80;;
10465;SDS011;5280;42.600;23.556;2022-12-15T12:08:45;11.97;;;10.67;;
10465;SDS011;5280;42.600;23.556;2022-12-15T12:11:24;11.90;;;10.57;;
10465;SDS011;5280;42.600;23.556;2022-12-15T12:13:59;13.03;;;10.73;;
10465;SDS011;5280;42.600;23.556;2022-12-15T12:16:39;15.37;;;11.80;;
10465;SDS011;5280;42.600;23.556;2022-12-15T12:19:15;17.13;;;12.63;;
10465;SDS011;5280;42.600;23.556;2022-12-15T12:21:47;12.73;;;9.90;;
10465;SDS011;5280;42.600;23.556;2022-12-15T12:24:15;9.50;;;8.50;;
10465;SDS011;5280;42.600;23.556;2022-12-15T12:26:48;13.37;;;8.73;;
10465;SDS011;5280;42.600;23.556;2022-12-15T12:29:24;10.23;;;9.10;;
10465;SDS011;5280;42.600;23.556;2022-12-15T12:31:56;10.07;;;8.03;;
10465;SDS011;5280;42.600;23.556;2022-12-15T12:34:31;10.33;;;7.40;;
10465;SDS011;5280;42.600;23.556;2022-12-15T12:37:12;7.40;;;6.60;;
10465;SDS011;5280;42.600;23.556;2022-12-15T12:39:43;6.90;;;5.47;;
10465;SDS011;5280;42.600;23.556;2022-12-15T12:42:13;7.03;;;6.00;;
10465;SDS011;5280;42.600;23.556;2022-12-15T12:44:46;8.83;;;7.67;;
10465;SDS011;5280;42.600;23.556;2022-12-15T12:47:15;11.90;;;8.03;;
10465;SDS011;5280;42.600;23.556;2022-12-15T12:49:47;8.87;;;8.00;;
10465;SDS011;5280;42.600;23.556;2022-12-15T12:52:19;9.90;;;8.70;;
10465;SDS011;5280;42.600;23.556;2022-12-15T12:54:51;9.60;;;8.50;;
10465;SDS011;5280;42.600;23.556;2022-12-15T12:57:33;9.07;;;8.17;;
10465;SDS011;5280;42.600;23.556;2022-12-15T13:00:04;10.83;;;8.80;;
10465;SDS011;5280;42.600;23.556;2022-12-15T13:02:43;9.40;;;7.60;;
10465;SDS011;5280;42.600;23.556;2022-12-15T13:08:15;9.00;;;7.03;;
10465;SDS011;5280;42.600;23.556;2022-12-15T13:14:13;7.23;;;5.50;;
10465;SDS011;5280;42.600;23.556;2022-12-15T13:16:45;5.60;;;4.47;;
10465;SDS011;5280;42.600;23.556;2022-12-15T13:19:15;4.70;;;4.20;;
10465;SDS011;5280;42.600;23.556;2022-12-15T13:22:22;6.30;;;4.13;;
10465;SDS011;5280;42.600;23.556;2022-12-15T13:24:50;3.73;;;3.43;;
10465;SDS011;5280;42.600;23.556;2022-12-15T13:27:16;6.47;;;5.10;;
10465;SDS011;5280;42.600;23.556;2022-12-15T13:29:58;5.23;;;4.60;;
10465;SDS011;5280;42.600;23.556;2022-12-15T13:32:33;5.13;;;4.47;;
10465;SDS011;5280;42.600;23.556;2022-12-15T13:35:20;4.77;;;4.27;;
10465;SDS011;5280;42.600;23.556;2022-12-15T13:37:51;7.97;;;4.17;;
10465;SDS011;5280;42.600;23.556;2022-12-15T13:40:27;4.13;;;3.80;;
10465;SDS011;5280;42.600;23.556;2022-12-15T13:43:39;3.80;;;3.50;;
10465;SDS011;5280;42.600;23.556;2022-12-15T13:46:15;3.33;;;3.07;;
10465;SDS011;5280;42.600;23.556;2022-12-15T13:48:50;4.37;;;3.30;;
10465;SDS011;5280;42.600;23.556;2022-12-15T13:51:29;4.43;;;4.03;;
10465;SDS011;5280;42.600;23.556;2022-12-15T13:53:59;4.20;;;3.80;;
10465;SDS011;5280;42.600;23.556;2022-12-15T13:56:47;3.70;;;3.40;;
10465;SDS011;5280;42.600;23.556;2022-12-15T13:59:21;3.60;;;3.30;;
10465;SDS011;5280;42.600;23.556;2022-12-15T14:01:53;4.13;;;3.73;;
10465;SDS011;5280;42.600;23.556;2022-12-15T14:04:20;2.90;;;2.70;;
10465;SDS011;5280;42.600;23.556;2022-12-15T14:06:50;2.80;;;2.50;;
10465;SDS011;5280;42.600;23.556;2022-12-15T14:09:20;4.57;;;2.80;;
10465;SDS011;5280;42.600;23.556;2022-12-15T14:11:50;3.40;;;2.67;;
10465;SDS011;5280;42.600;23.556;2022-12-15T14:14:18;2.80;;;2.40;;
10465;SDS011;5280;42.600;23.556;2022-12-15T14:16:50;2.60;;;2.40;;
10465;SDS011;5280;42.600;23.556;2022-12-15T14:19:21;4.03;;;2.53;;
10465;SDS011;5280;42.600;23.556;2022-12-15T14:21:48;2.70;;;2.50;;
10465;SDS011;5280;42.600;23.556;2022-12-15T14:24:24;2.70;;;2.50;;
10465;SDS011;5280;42.600;23.556;2022-12-15T14:26:52;2.70;;;2.50;;
10465;SDS011;5280;42.600;23.556;2022-12-15T14:29:20;2.90;;;2.30;;
10465;SDS011;5280;42.600;23.556;2022-12-15T14:31:48;2.90;;;2.60;;
10465;SDS011;5280;42.600;23.556;2022-12-15T14:34:24;2.63;;;2.43;;
10465;SDS011;5280;42.600;23.556;2022-12-15T14:36:55;2.70;;;2.50;;
10465;SDS011;5280;42.600;23.556;2022-12-15T14:39:27;3.47;;;2.73;;
10465;SDS011;5280;42.600;23.556;2022-12-15T14:42:00;3.10;;;2.83;;
10465;SDS011;5280;42.600;23.556;2022-12-15T14:44:28;7.13;;;4.83;;
10465;SDS011;5280;42.600;23.556;2022-12-15T14:46:59;4.30;;;3.90;;
10465;SDS011;5280;42.600;23.556;2022-12-15T14:49:30;4.47;;;3.87;;
10465;SDS011;5280;42.600;23.556;2022-12-15T14:52:02;4.13;;;3.27;;
10465;SDS011;5280;42.600;23.556;2022-12-15T14:54:33;4.53;;;4.07;;
10465;SDS011;5280;42.600;23.556;2022-12-15T14:57:01;4.23;;;3.83;;
10465;SDS011;5280;42.600;23.556;2022-12-15T14:59:38;3.17;;;2.70;;
10465;SDS011;5280;42.600;23.556;2022-12-15T15:02:09;3.77;;;3.17;;
10465;SDS011;5280;42.600;23.556;2022-12-15T15:04:40;4.23;;;2.97;;
10465;SDS011;5280;42.600;23.556;2022-12-15T15:07:13;4.03;;;3.13;;
10465;SDS011;5280;42.600;23.556;2022-12-15T15:09:42;4.53;;;2.90;;
10465;SDS011;5280;42.600;23.556;2022-12-15T15:12:15;3.00;;;2.70;;
10465;SDS011;5280;42.600;23.556;2022-12-15T15:14:44;2.60;;;2.40;;
10465;SDS011;5280;42.600;23.556;2022-12-15T15:17:20;2.90;;;2.40;;
10465;SDS011;5280;42.600;23.556;2022-12-15T15:19:52;3.40;;;2.67;;
10465;SDS011;5280;42.600;23.556;2022-12-15T15:22:24;3.20;;;2.90;;
10465;SDS011;5280;42.600;23.556;2022-12-15T15:24:56;4.33;;;3.93;;
10465;SDS011;5280;42.600;23.556;2022-12-15T15:27:24;3.73;;;2.97;;